Advance, Indiana
Current Conditions -  °F | °C
As of 11:55 PM on Thursday 30 Oct 2014 (Local Time) from KFKR Reporting Station
Scattered Clouds Scattered Clouds  
Wind Chill: 44°   Ceiling: Unl
Heat Index: 44°   Visibility: 10mi
Dew Point: 40°   Wind: 3mph
Humidity: 85%   Direction: 250°WSW
Pressure: 30.06"   Gusts: NA
Location:  40°N, 86.62°W
Report Text: KFKR 310355Z AUTO 25003KT 10SM SCT060 SCT100 07/05 A3006 RMK AO2 T00690045
Loading
Personal Weather Stations






























Interactive Weather Map
Tropical Storm Tracking
New forecast layout! Learn more

10-Day Weather Forecast

Advertisements
Track Severe Weather on mobile